createdAt,value
2022-08-17T00:00:43.028Z,30.84
2022-08-17T00:01:03.501Z,30.83
2022-08-17T00:01:28.756Z,30.83
2022-08-17T00:01:53.416Z,30.84
2022-08-17T00:02:22.410Z,30.81
2022-08-17T00:03:02.844Z,30.81
2022-08-17T00:03:26.805Z,30.76
2022-08-17T00:03:51.155Z,30.83
2022-08-17T00:04:13.030Z,30.77
2022-08-17T00:04:38.584Z,30.82
2022-08-17T00:05:00.311Z,30.79
2022-08-17T00:05:22.181Z,30.82
2022-08-17T00:05:47.114Z,30.81
2022-08-17T00:06:12.115Z,30.82
2022-08-17T00:06:35.596Z,30.82
2022-08-17T00:06:57.278Z,30.81
2022-08-17T00:07:19.952Z,30.79
2022-08-17T00:07:41.681Z,30.84
2022-08-17T00:08:04.722Z,30.86
2022-08-17T00:08:29.195Z,30.87
2022-08-17T00:08:54.736Z,30.88
2022-08-17T00:09:18.377Z,30.87
2022-08-17T00:09:40.981Z,30.91
2022-08-17T00:10:02.684Z,30.92
2022-08-17T00:10:24.708Z,30.93
2022-08-17T00:10:48.054Z,30.96
2022-08-17T00:11:12.633Z,30.88
2022-08-17T00:11:37.408Z,30.99
2022-08-17T00:12:40.551Z,31.00
2022-08-17T00:12:44.525Z,31.01
2022-08-17T00:13:08.525Z,31.01
2022-08-17T00:13:33.250Z,31.03
2022-08-17T00:13:58.494Z,31.04
2022-08-17T00:14:21.997Z,31.05
2022-08-17T00:14:43.699Z,31.05
2022-08-17T00:15:08.804Z,31.06
2022-08-17T00:15:32.461Z,31.05
2022-08-17T00:15:59.636Z,31.07
2022-08-17T00:16:55.327Z,31.07
2022-08-17T00:17:06.400Z,31.06
2022-08-17T00:17:28.138Z,31.06
2022-08-17T00:17:52.373Z,31.06
2022-08-17T00:19:01.134Z,31.06
2022-08-17T00:19:07.074Z,31.08
2022-08-17T00:19:29.937Z,31.09
2022-08-17T00:19:51.851Z,31.07
2022-08-17T00:20:14.003Z,31.05
2022-08-17T00:20:36.949Z,31.11
2022-08-17T00:21:00.418Z,31.10
2022-08-17T00:21:23.805Z,31.08
2022-08-17T00:22:31.479Z,31.07
2022-08-17T00:22:35.265Z,30.97
2022-08-17T00:23:06.889Z,30.97
2022-08-17T00:23:28.827Z,30.96
2022-08-17T00:23:50.918Z,30.98
2022-08-17T00:24:13.183Z,31.00
2022-08-17T00:24:36.073Z,30.99
2022-08-17T00:24:57.785Z,31.00
2022-08-17T00:25:20.050Z,31.02
2022-08-17T00:25:43.282Z,30.98
2022-08-17T00:26:06.819Z,31.04
2022-08-17T00:26:43.671Z,31.04
2022-08-17T00:27:07.605Z,31.06
2022-08-17T00:27:29.295Z,30.99
2022-08-17T00:27:51.938Z,31.10
2022-08-17T00:28:16.973Z,31.08
2022-08-17T00:28:40.004Z,31.08
2022-08-17T00:29:02.432Z,31.07
2022-08-17T00:29:26.468Z,31.08
2022-08-17T00:29:48.225Z,31.06
2022-08-17T00:30:12.448Z,31.07
2022-08-17T00:30:52.978Z,31.06
2022-08-17T00:31:16.437Z,31.06
2022-08-17T00:31:38.139Z,31.07
2022-08-17T00:32:01.456Z,31.08
2022-08-17T00:33:22.859Z,31.10
2022-08-17T00:33:31.156Z,31.12
2022-08-17T00:33:53.455Z,31.10
2022-08-17T00:34:16.426Z,31.10
2022-08-17T00:34:38.207Z,31.07
2022-08-17T00:34:59.909Z,30.97
2022-08-17T00:35:23.796Z,31.06
2022-08-17T00:35:50.004Z,31.07
2022-08-17T00:36:12.346Z,31.03
2022-08-17T00:36:34.374Z,31.05
2022-08-17T00:36:56.146Z,31.07
2022-08-17T00:37:18.838Z,31.04
2022-08-17T00:37:40.704Z,31.03
2022-08-17T00:38:04.074Z,31.04
2022-08-17T00:38:28.265Z,31.05
2022-08-17T00:38:51.248Z,31.06
2022-08-17T00:39:12.949Z,31.07
2022-08-17T00:39:34.786Z,31.08
2022-08-17T00:39:56.535Z,31.05
2022-08-17T00:40:18.962Z,31.03
2022-08-17T00:40:45.665Z,31.06
2022-08-17T00:41:09.525Z,31.04
2022-08-17T00:41:31.318Z,31.05
2022-08-17T00:41:53.421Z,31.04
2022-08-17T00:42:17.477Z,31.04
2022-08-17T00:42:42.883Z,31.03
2022-08-17T00:43:13.672Z,31.02
2022-08-17T00:43:38.583Z,31.02
2022-08-17T00:44:03.362Z,31.02
2022-08-17T00:44:30.371Z,31.03
2022-08-17T00:44:53.559Z,31.04
2022-08-17T00:45:16.981Z,31.04
2022-08-17T00:45:38.696Z,31.00
2022-08-17T00:46:03.377Z,30.99
2022-08-17T00:46:28.361Z,30.89
2022-08-17T00:46:50.097Z,30.96
2022-08-17T00:47:11.706Z,30.97
2022-08-17T00:47:33.434Z,30.97
2022-08-17T00:47:56.021Z,30.93
2022-08-17T00:48:29.372Z,30.95
2022-08-17T00:48:53.065Z,30.96
2022-08-17T00:49:24.714Z,30.98
2022-08-17T00:49:47.402Z,30.92
2022-08-17T00:50:11.878Z,30.95
2022-08-17T00:50:34.852Z,30.97
2022-08-17T00:51:01.957Z,30.93
2022-08-17T00:51:31.649Z,30.94
2022-08-17T00:51:59.022Z,30.95
2022-08-17T00:52:25.344Z,30.92
2022-08-17T00:52:54.701Z,30.85
2022-08-17T00:53:16.552Z,30.85
2022-08-17T00:53:42.662Z,30.84
2022-08-17T00:54:09.384Z,30.84
2022-08-17T00:54:42.218Z,30.78
2022-08-17T00:55:06.068Z,30.71
2022-08-17T00:55:28.150Z,30.81
2022-08-17T00:55:50.865Z,30.77
2022-08-17T00:56:20.972Z,30.76
2022-08-17T00:56:47.595Z,30.71
2022-08-17T00:57:14.284Z,30.77
2022-08-17T00:57:40.856Z,30.78
2022-08-17T00:58:06.608Z,30.79
2022-08-17T00:58:36.669Z,30.80
2022-08-17T00:58:59.949Z,30.80
2022-08-17T00:59:25.923Z,30.80
2022-08-17T01:00:01.552Z,30.82
2022-08-17T01:00:28.034Z,30.82
2022-08-17T01:00:50.978Z,30.81
2022-08-17T01:01:21.592Z,30.79
2022-08-17T01:01:44.148Z,30.82
2022-08-17T01:02:08.222Z,30.78
2022-08-17T01:02:40.412Z,30.82
2022-08-17T01:03:10.916Z,30.84
2022-08-17T01:03:34.861Z,30.83
2022-08-17T01:04:00.072Z,30.86
2022-08-17T01:04:22.640Z,30.87
2022-08-17T01:04:47.339Z,30.88
2022-08-17T01:05:14.788Z,30.82
2022-08-17T01:05:38.852Z,30.86
2022-08-17T01:06:06.167Z,30.81
2022-08-17T01:06:30.361Z,30.82
2022-08-17T01:06:53.090Z,30.84
2022-08-17T01:07:16.153Z,30.85
2022-08-17T01:07:38.149Z,30.78
2022-08-17T01:08:00.940Z,30.83
2022-08-17T01:08:27.094Z,30.84
2022-08-17T01:08:51.882Z,30.81
2022-08-17T01:09:20.314Z,30.82
2022-08-17T01:09:44.009Z,30.83
2022-08-17T01:10:58.690Z,30.83
2022-08-17T01:11:00.253Z,30.82
2022-08-17T01:11:25.308Z,30.79
2022-08-17T01:11:52.007Z,30.84
2022-08-17T01:12:14.100Z,30.81
2022-08-17T01:12:36.966Z,30.79
2022-08-17T01:13:02.326Z,30.77
2022-08-17T01:13:25.889Z,30.74
2022-08-17T01:13:47.723Z,30.79
2022-08-17T01:14:09.430Z,30.78
2022-08-17T01:14:32.067Z,30.74
2022-08-17T01:14:55.117Z,30.68
2022-08-17T01:15:16.924Z,30.74
2022-08-17T01:15:41.410Z,30.74
2022-08-17T01:16:16.547Z,30.77
2022-08-17T01:16:38.788Z,30.69
2022-08-17T01:17:00.652Z,30.67
2022-08-17T01:17:22.377Z,30.67
2022-08-17T01:17:46.999Z,30.64
2022-08-17T01:18:11.611Z,30.63
2022-08-17T01:18:34.214Z,30.68
2022-08-17T01:18:59.228Z,30.71
2022-08-17T01:19:25.756Z,30.70
2022-08-17T01:19:47.472Z,30.68
2022-08-17T01:20:09.615Z,30.67
2022-08-17T01:20:32.530Z,30.66
2022-08-17T01:21:19.323Z,30.65
2022-08-17T01:21:50.317Z,30.66
2022-08-17T01:22:19.745Z,30.61
2022-08-17T01:22:41.452Z,30.64
2022-08-17T01:23:04.179Z,30.61
2022-08-17T01:23:27.441Z,30.60
2022-08-17T01:23:49.311Z,30.60
2022-08-17T01:24:11.884Z,30.63
2022-08-17T01:24:34.877Z,30.63
2022-08-17T01:24:59.786Z,30.62
2022-08-17T01:25:22.348Z,30.65
2022-08-17T01:25:45.168Z,30.62
2022-08-17T01:26:10.809Z,30.61
2022-08-17T01:26:34.588Z,30.59
2022-08-17T01:26:56.630Z,30.58
2022-08-17T01:27:21.222Z,30.49
2022-08-17T01:27:44.862Z,30.51
2022-08-17T01:28:06.737Z,30.53
2022-08-17T01:28:53.191Z,30.55
2022-08-17T01:29:14.582Z,30.53
2022-08-17T01:29:39.514Z,30.52
2022-08-17T01:30:04.535Z,30.51
2022-08-17T01:30:58.619Z,30.52
2022-08-17T01:31:22.009Z,30.47
2022-08-17T01:31:47.080Z,30.50
2022-08-17T01:32:09.379Z,30.52
2022-08-17T01:32:31.789Z,30.54
2022-08-17T01:32:54.522Z,30.54
2022-08-17T01:33:16.337Z,30.55
2022-08-17T01:33:38.087Z,30.51
2022-08-17T01:34:04.582Z,30.51
2022-08-17T01:34:38.048Z,30.50
2022-08-17T01:35:08.259Z,30.44
2022-08-17T01:35:29.969Z,30.44
2022-08-17T01:35:51.685Z,30.38
2022-08-17T01:36:13.561Z,30.35
2022-08-17T01:36:37.010Z,30.35
2022-08-17T01:36:59.367Z,30.35
2022-08-17T01:37:30.352Z,30.33
2022-08-17T01:37:52.107Z,30.34
2022-08-17T01:38:14.818Z,30.34
2022-08-17T01:38:38.661Z,30.32
2022-08-17T01:39:00.676Z,30.33
2022-08-17T01:39:29.966Z,30.29
2022-08-17T01:39:56.959Z,30.28
2022-08-17T01:40:22.939Z,30.30
2022-08-17T01:40:49.463Z,30.29
2022-08-17T01:41:23.330Z,30.29
2022-08-17T01:41:46.569Z,30.22
2022-08-17T01:42:15.193Z,30.21
2022-08-17T01:42:41.723Z,30.23
2022-08-17T01:43:11.705Z,30.21
2022-08-17T01:43:39.882Z,30.23
2022-08-17T01:44:04.137Z,30.26
2022-08-17T01:44:27.678Z,30.26
2022-08-17T01:44:54.896Z,30.26
2022-08-17T01:45:23.802Z,30.24
2022-08-17T01:45:48.557Z,30.25
2022-08-17T01:46:27.717Z,30.24
2022-08-17T01:46:50.671Z,30.26
2022-08-17T01:47:14.098Z,30.27
2022-08-17T01:47:37.125Z,30.28
2022-08-17T01:47:59.863Z,30.29
2022-08-17T01:48:21.789Z,30.26
2022-08-17T01:48:47.215Z,30.22
2022-08-17T01:49:11.383Z,30.26
2022-08-17T01:49:34.175Z,30.27
2022-08-17T01:49:56.410Z,30.23
2022-08-17T01:50:21.621Z,30.24
2022-08-17T01:50:45.006Z,30.21
2022-08-17T01:51:09.199Z,30.24
2022-08-17T01:51:32.691Z,30.12
2022-08-17T01:51:55.218Z,30.09
2022-08-17T01:52:17.408Z,30.06
2022-08-17T01:52:42.398Z,29.98
2022-08-17T01:53:07.372Z,29.99
2022-08-17T01:53:34.821Z,30.00
2022-08-17T01:53:58.445Z,30.02
2022-08-17T01:54:21.920Z,29.98
2022-08-17T01:54:47.315Z,30.01
2022-08-17T01:55:10.065Z,30.00
2022-08-17T01:55:34.899Z,30.02
2022-08-17T01:55:59.917Z,30.01
2022-08-17T01:56:24.311Z,29.94
2022-08-17T01:56:49.806Z,29.92
2022-08-17T01:57:12.117Z,29.95
2022-08-17T01:57:35.117Z,29.89
2022-08-17T01:57:56.834Z,29.90
2022-08-17T01:58:20.225Z,29.93
2022-08-17T01:58:42.863Z,29.92
2022-08-17T01:59:06.417Z,29.90
2022-08-17T01:59:28.516Z,29.94
2022-08-17T01:59:50.271Z,29.90
2022-08-17T02:00:13.478Z,29.90
2022-08-17T02:01:00.557Z,29.92
2022-08-17T02:01:20.542Z,29.83
2022-08-17T02:01:43.529Z,29.81
2022-08-17T02:02:07.268Z,29.87
2022-08-17T02:02:30.621Z,29.84
2022-08-17T02:02:54.239Z,29.81
2022-08-17T02:03:17.143Z,29.79
2022-08-17T02:03:38.896Z,29.80
2022-08-17T02:04:01.919Z,29.76
2022-08-17T02:04:24.774Z,29.71
2022-08-17T02:04:46.477Z,29.72
2022-08-17T02:05:08.795Z,29.70
2022-08-17T02:05:32.723Z,29.67
2022-08-17T02:05:54.506Z,29.64
2022-08-17T02:06:27.546Z,29.59
2022-08-17T02:06:53.314Z,29.64
2022-08-17T02:07:17.105Z,29.64
2022-08-17T02:07:59.688Z,29.66
2022-08-17T02:08:39.218Z,29.67
2022-08-17T02:09:07.517Z,29.62
2022-08-17T02:09:38.324Z,29.58
2022-08-17T02:10:04.964Z,29.57
2022-08-17T02:10:46.799Z,29.56
2022-08-17T02:11:12.523Z,29.58
2022-08-17T02:11:37.613Z,29.57
2022-08-17T02:12:38.381Z,29.43
2022-08-17T02:12:44.001Z,29.61
2022-08-17T02:13:05.808Z,29.57
2022-08-17T02:13:29.747Z,29.61
2022-08-17T02:13:55.109Z,29.60
2022-08-17T02:14:26.253Z,29.62
2022-08-17T02:14:47.898Z,29.64
2022-08-17T02:15:14.401Z,29.67
2022-08-17T02:15:38.264Z,29.68
2022-08-17T02:16:00.380Z,29.63
2022-08-17T02:16:22.090Z,29.67
2022-08-17T02:16:45.061Z,29.65
2022-08-17T02:17:06.738Z,29.64
2022-08-17T02:17:28.408Z,29.62
2022-08-17T02:17:54.865Z,29.61
2022-08-17T02:18:17.666Z,29.64
2022-08-17T02:18:39.354Z,29.63
2022-08-17T02:19:01.536Z,29.65
2022-08-17T02:19:23.438Z,29.64
2022-08-17T02:19:46.132Z,29.68
2022-08-17T02:20:09.948Z,29.69
2022-08-17T02:20:41.181Z,29.68
2022-08-17T02:21:06.874Z,29.64
2022-08-17T02:21:28.843Z,29.66
2022-08-17T02:21:53.377Z,29.68
2022-08-17T02:22:15.737Z,29.67
2022-08-17T02:22:43.743Z,29.67
2022-08-17T02:23:08.810Z,29.61
2022-08-17T02:23:34.394Z,29.72
2022-08-17T02:23:56.309Z,29.71
2022-08-17T02:24:58.297Z,29.73
2022-08-17T02:25:09.229Z,29.67
2022-08-17T02:25:33.128Z,29.67
2022-08-17T02:25:58.577Z,29.65
2022-08-17T02:26:25.731Z,29.66
2022-08-17T02:26:48.447Z,29.65
2022-08-17T02:27:11.515Z,29.66
2022-08-17T02:27:33.196Z,29.67
2022-08-17T02:27:54.831Z,29.69
2022-08-17T02:28:17.630Z,29.61
2022-08-17T02:28:39.350Z,29.66
2022-08-17T02:29:01.989Z,29.70
2022-08-17T02:29:23.685Z,29.71
2022-08-17T02:29:45.535Z,29.61
2022-08-17T02:30:59.028Z,29.72
2022-08-17T02:31:02.455Z,29.71
2022-08-17T02:31:24.732Z,29.67
2022-08-17T02:31:46.678Z,29.68
2022-08-17T02:32:21.001Z,29.68
2022-08-17T02:32:51.525Z,29.67
2022-08-17T02:33:13.477Z,29.69
2022-08-17T02:33:41.902Z,29.69
2022-08-17T02:34:06.218Z,29.73
2022-08-17T02:34:28.079Z,29.72
2022-08-17T02:34:50.390Z,29.69
2022-08-17T02:35:13.329Z,29.65
2022-08-17T02:35:37.106Z,29.69
2022-08-17T02:35:58.806Z,29.71
2022-08-17T02:36:25.429Z,29.71
2022-08-17T02:36:49.036Z,29.73
2022-08-17T02:37:10.735Z,29.72
2022-08-17T02:37:33.720Z,29.70
2022-08-17T02:37:56.797Z,29.68
2022-08-17T02:38:18.483Z,29.64
2022-08-17T02:38:43.212Z,29.60
2022-08-17T02:39:08.802Z,29.65
2022-08-17T02:39:31.356Z,29.65
2022-08-17T02:39:53.202Z,29.61
2022-08-17T02:40:16.611Z,29.65
2022-08-17T02:40:55.702Z,29.53
2022-08-17T02:41:17.369Z,29.62
2022-08-17T02:41:40.099Z,29.56
2022-08-17T02:42:04.226Z,29.63
2022-08-17T02:42:27.977Z,29.57
2022-08-17T02:42:49.894Z,29.63
2022-08-17T02:43:13.759Z,29.65
2022-08-17T02:43:36.673Z,29.66
2022-08-17T02:43:58.862Z,29.67
2022-08-17T02:44:39.379Z,29.69
2022-08-17T02:45:03.433Z,29.67
2022-08-17T02:45:25.995Z,29.67
2022-08-17T02:45:47.704Z,29.67
2022-08-17T02:46:09.621Z,29.67
2022-08-17T02:46:32.217Z,29.69
2022-08-17T02:46:53.879Z,29.66
2022-08-17T02:47:16.485Z,29.68
2022-08-17T02:47:38.755Z,29.69
2022-08-17T02:48:00.532Z,29.70
2022-08-17T02:48:30.955Z,29.70
2022-08-17T02:48:54.665Z,29.66
2022-08-17T02:49:16.371Z,29.57
2022-08-17T02:49:38.452Z,29.57
2022-08-17T02:50:01.372Z,29.58
2022-08-17T02:50:24.240Z,29.61
2022-08-17T02:50:46.474Z,29.61
2022-08-17T02:51:09.086Z,29.61
2022-08-17T02:51:32.692Z,29.62
2022-08-17T02:51:56.874Z,29.61
2022-08-17T02:52:19.007Z,29.59
2022-08-17T02:53:05.413Z,29.55
2022-08-17T02:53:28.140Z,29.57
2022-08-17T02:54:35.725Z,29.54
2022-08-17T02:54:42.368Z,29.57
2022-08-17T02:55:05.387Z,29.55
2022-08-17T02:55:29.407Z,29.50
2022-08-17T02:55:51.057Z,29.49
2022-08-17T02:56:14.424Z,29.50
2022-08-17T02:56:36.084Z,29.52
2022-08-17T02:56:57.741Z,29.55
2022-08-17T02:57:19.683Z,29.56
2022-08-17T02:57:41.589Z,29.57
2022-08-17T02:58:04.696Z,29.57
2022-08-17T02:58:34.413Z,29.58
2022-08-17T02:58:58.572Z,29.58
2022-08-17T02:59:20.324Z,29.58
2022-08-17T02:59:48.296Z,29.59
2022-08-17T03:00:18.615Z,29.61
2022-08-17T03:00:42.815Z,29.65
2022-08-17T03:01:05.968Z,29.62
2022-08-17T03:01:29.009Z,29.63
2022-08-17T03:01:50.778Z,29.64
2022-08-17T03:02:12.711Z,29.67
2022-08-17T03:02:38.485Z,29.68
2022-08-17T03:03:02.293Z,29.68
2022-08-17T03:03:26.012Z,29.68
2022-08-17T03:03:47.979Z,29.70
2022-08-17T03:04:09.661Z,29.70
2022-08-17T03:04:34.407Z,29.70
2022-08-17T03:04:57.065Z,29.74
2022-08-17T03:05:21.673Z,29.66
2022-08-17T03:05:44.318Z,29.76
2022-08-17T03:06:08.460Z,29.74
2022-08-17T03:06:31.736Z,29.75
2022-08-17T03:06:53.387Z,29.73
2022-08-17T03:07:16.018Z,29.72
2022-08-17T03:07:39.277Z,29.73
2022-08-17T03:08:01.209Z,29.70
2022-08-17T03:08:25.370Z,29.72
2022-08-17T03:08:47.065Z,29.72
2022-08-17T03:09:09.853Z,29.71
2022-08-17T03:09:31.611Z,29.69
2022-08-17T03:09:53.930Z,29.71
2022-08-17T03:10:17.174Z,29.69
2022-08-17T03:10:38.815Z,29.72
2022-08-17T03:11:01.620Z,29.75
2022-08-17T03:11:23.493Z,29.69
2022-08-17T03:11:46.675Z,29.75
2022-08-17T03:12:13.702Z,29.74
2022-08-17T03:12:37.993Z,29.76
2022-08-17T03:13:01.608Z,29.77
2022-08-17T03:13:23.558Z,29.79
2022-08-17T03:13:45.841Z,29.78
2022-08-17T03:14:07.543Z,29.79
2022-08-17T03:14:32.158Z,29.78
2022-08-17T03:14:53.840Z,29.80
2022-08-17T03:15:21.937Z,29.70
2022-08-17T03:15:45.942Z,29.73
2022-08-17T03:16:09.296Z,29.67
2022-08-17T03:16:31.396Z,29.72
2022-08-17T03:16:53.233Z,29.71
2022-08-17T03:17:17.127Z,29.73
2022-08-17T03:17:39.498Z,29.71
2022-08-17T03:18:03.696Z,29.72
2022-08-17T03:18:26.407Z,29.72
2022-08-17T03:18:48.474Z,29.68
2022-08-17T03:19:10.280Z,29.68
2022-08-17T03:19:33.560Z,29.65
2022-08-17T03:19:55.527Z,29.64
2022-08-17T03:20:17.263Z,29.62
2022-08-17T03:20:39.201Z,29.64
2022-08-17T03:21:04.175Z,29.66
2022-08-17T03:21:26.890Z,29.64
2022-08-17T03:21:54.852Z,29.64
2022-08-17T03:22:36.408Z,29.65
2022-08-17T03:23:02.814Z,29.63
2022-08-17T03:23:29.600Z,29.65
2022-08-17T03:23:54.381Z,29.68
2022-08-17T03:24:16.438Z,29.68
2022-08-17T03:24:40.735Z,29.67
2022-08-17T03:25:03.798Z,29.70
2022-08-17T03:25:30.369Z,29.66
2022-08-17T03:25:53.264Z,29.69
2022-08-17T03:26:16.254Z,29.74
2022-08-17T03:26:37.991Z,29.70
2022-08-17T03:26:59.696Z,29.71
2022-08-17T03:27:21.394Z,29.65
2022-08-17T03:27:43.369Z,29.75
2022-08-17T03:28:11.926Z,29.76
2022-08-17T03:28:33.948Z,29.76
2022-08-17T03:28:55.622Z,29.79
2022-08-17T03:29:19.162Z,29.79
2022-08-17T03:29:41.781Z,29.78
2022-08-17T03:30:05.309Z,29.77
2022-08-17T03:30:28.133Z,29.74
2022-08-17T03:30:51.055Z,29.75
2022-08-17T03:31:13.879Z,29.76
2022-08-17T03:31:36.912Z,29.76
2022-08-17T03:31:58.806Z,29.71
2022-08-17T03:32:20.663Z,29.77
2022-08-17T03:32:45.709Z,29.76
2022-08-17T03:33:10.088Z,29.75
2022-08-17T03:33:32.301Z,29.75
2022-08-17T03:33:54.929Z,29.74
2022-08-17T03:34:17.108Z,29.74
2022-08-17T03:34:38.802Z,29.76
2022-08-17T03:35:00.466Z,29.72
2022-08-17T03:35:25.210Z,29.78
2022-08-17T03:35:47.886Z,29.78
2022-08-17T03:36:10.879Z,29.78
2022-08-17T03:36:32.526Z,29.76
2022-08-17T03:36:57.872Z,29.75
2022-08-17T03:37:19.537Z,29.74
2022-08-17T03:37:42.881Z,29.72
2022-08-17T03:38:05.254Z,29.71
2022-08-17T03:38:28.243Z,29.73
2022-08-17T03:38:49.868Z,29.73
2022-08-17T03:39:13.749Z,29.67
2022-08-17T03:39:35.504Z,29.69
2022-08-17T03:39:57.240Z,29.71
2022-08-17T03:40:55.559Z,29.72
2022-08-17T03:41:03.190Z,29.62
2022-08-17T03:41:24.860Z,29.59
2022-08-17T03:41:46.555Z,29.59
2022-08-17T03:42:31.283Z,29.61
2022-08-17T03:42:55.305Z,29.62
2022-08-17T03:43:17.876Z,29.51
2022-08-17T03:43:39.582Z,29.62
2022-08-17T03:44:01.489Z,29.58
2022-08-17T03:44:24.153Z,29.65
2022-08-17T03:44:48.561Z,29.61
2022-08-17T03:45:15.447Z,29.63
2022-08-17T03:45:56.425Z,29.61
2022-08-17T03:46:36.825Z,29.67
2022-08-17T03:47:17.221Z,29.65
2022-08-17T03:47:57.456Z,29.63
2022-08-17T03:48:37.844Z,29.63
2022-08-17T03:49:18.087Z,29.61
2022-08-17T03:49:58.406Z,29.59
2022-08-17T03:50:35.217Z,29.56
2022-08-17T03:51:15.970Z,29.46
2022-08-17T03:51:55.852Z,29.54
2022-08-17T03:52:35.994Z,29.54
2022-08-17T03:53:16.314Z,29.49
2022-08-17T03:54:07.702Z,29.51
2022-08-17T03:54:44.369Z,29.40
2022-08-17T03:55:36.020Z,29.34
2022-08-17T03:56:18.151Z,29.27
2022-08-17T03:56:53.171Z,29.19
2022-08-17T03:58:32.023Z,29.20
2022-08-17T03:59:07.842Z,29.20
2022-08-17T03:59:58.458Z,29.21
2022-08-17T04:00:21.758Z,29.20
2022-08-17T04:01:03.857Z,29.25
2022-08-17T04:01:28.751Z,29.18
2022-08-17T04:02:20.687Z,29.21
2022-08-17T04:03:13.486Z,29.26
2022-08-17T04:03:58.443Z,29.13
2022-08-17T04:06:21.633Z,28.97
2022-08-17T04:06:49.574Z,29.00
2022-08-17T04:07:20.749Z,29.00
2022-08-17T04:07:44.025Z,29.03
2022-08-17T04:08:23.881Z,29.03
2022-08-17T04:09:00.838Z,29.10
2022-08-17T04:09:31.991Z,29.09
2022-08-17T04:10:00.853Z,29.12
2022-08-17T04:10:44.915Z,29.12
2022-08-17T04:12:09.905Z,29.13
2022-08-17T04:12:43.536Z,29.13
2022-08-17T04:13:06.012Z,29.11
2022-08-17T04:13:27.857Z,29.08
2022-08-17T04:13:50.495Z,29.09
2022-08-17T04:14:12.246Z,29.11
2022-08-17T04:14:53.783Z,29.13
2022-08-17T04:15:18.529Z,29.12
2022-08-17T04:15:40.344Z,29.13
2022-08-17T04:16:02.045Z,29.11
2022-08-17T04:16:24.066Z,29.16
2022-08-17T04:16:45.744Z,29.17
2022-08-17T04:17:08.434Z,29.18
2022-08-17T04:17:30.146Z,29.13
2022-08-17T04:17:52.261Z,29.16
2022-08-17T04:18:13.950Z,29.18
2022-08-17T04:18:35.648Z,29.21
2022-08-17T04:18:57.353Z,29.20
2022-08-17T04:19:19.982Z,29.21
2022-08-17T04:19:41.700Z,29.20
2022-08-17T04:20:04.828Z,29.14
2022-08-17T04:20:27.522Z,29.18
2022-08-17T04:20:50.402Z,29.17
2022-08-17T04:21:12.044Z,29.20
2022-08-17T04:21:34.863Z,29.18
2022-08-17T04:21:58.711Z,29.21
2022-08-17T04:22:30.333Z,29.21
2022-08-17T04:22:57.215Z,29.24
2022-08-17T04:23:19.107Z,29.23
2022-08-17T04:23:40.782Z,29.24
2022-08-17T04:24:05.807Z,29.25
2022-08-17T04:24:27.687Z,29.21
2022-08-17T04:24:49.380Z,29.15
2022-08-17T04:25:18.997Z,29.21
2022-08-17T04:25:44.437Z,29.21
2022-08-17T04:26:06.184Z,29.20
2022-08-17T04:26:52.892Z,29.22
2022-08-17T04:27:11.311Z,29.28
2022-08-17T04:27:33.184Z,29.26
2022-08-17T04:27:55.077Z,29.32
2022-08-17T04:28:18.546Z,29.32
2022-08-17T04:28:42.032Z,29.35
2022-08-17T04:29:21.523Z,29.36
2022-08-17T04:30:45.431Z,29.35
2022-08-17T04:31:15.315Z,29.37
2022-08-17T04:33:17.273Z,29.35
2022-08-17T04:33:50.247Z,29.34
2022-08-17T04:35:47.788Z,29.36
2022-08-17T04:36:23.580Z,29.36
2022-08-17T04:37:14.822Z,29.34
2022-08-17T04:38:38.700Z,29.34
2022-08-17T04:39:12.978Z,29.36
2022-08-17T04:40:32.475Z,29.32
2022-08-17T04:41:19.873Z,29.35
2022-08-17T04:42:48.395Z,29.37
2022-08-17T04:43:27.097Z,29.39
2022-08-17T04:44:55.370Z,29.33
2022-08-17T04:45:19.366Z,29.36
2022-08-17T04:45:55.458Z,29.38
2022-08-17T04:46:22.525Z,29.32
2022-08-17T04:46:44.189Z,29.37
2022-08-17T04:47:07.334Z,29.38
2022-08-17T04:47:32.811Z,29.40
2022-08-17T04:47:54.529Z,29.39
2022-08-17T04:48:17.480Z,29.41
2022-08-17T04:48:41.537Z,29.36
2022-08-17T04:49:06.787Z,29.36
2022-08-17T04:49:29.397Z,29.37
2022-08-17T04:49:51.033Z,29.38
2022-08-17T04:50:12.780Z,29.39
2022-08-17T04:50:34.897Z,29.39
2022-08-17T04:50:58.492Z,29.38
2022-08-17T04:51:25.294Z,29.41
2022-08-17T04:51:56.147Z,29.27
2022-08-17T04:52:29.865Z,29.35
2022-08-17T04:53:04.462Z,29.30
2022-08-17T04:53:27.029Z,29.16
2022-08-17T04:53:54.335Z,29.13
2022-08-17T04:54:22.803Z,29.15
2022-08-17T04:54:44.456Z,29.22
2022-08-17T04:55:07.045Z,29.23
2022-08-17T04:55:28.999Z,29.26
2022-08-17T04:55:51.981Z,29.28
2022-08-17T04:56:16.730Z,29.29
2022-08-17T04:56:40.308Z,29.33
2022-08-17T04:57:02.014Z,29.34
2022-08-17T04:57:23.661Z,29.34
2022-08-17T04:57:45.344Z,29.34
2022-08-17T04:58:08.056Z,29.34
2022-08-17T04:58:30.735Z,29.32
2022-08-17T04:58:54.861Z,29.28
2022-08-17T04:59:18.958Z,29.30
2022-08-17T04:59:42.797Z,29.33
2022-08-17T05:00:06.332Z,29.36
2022-08-17T05:00:28.076Z,29.39
2022-08-17T05:00:49.832Z,29.40
2022-08-17T05:01:12.865Z,29.43
2022-08-17T05:01:36.977Z,29.43
2022-08-17T05:01:58.996Z,29.43
2022-08-17T05:02:20.661Z,29.41
2022-08-17T05:02:49.754Z,29.43
2022-08-17T05:03:13.245Z,29.44
2022-08-17T05:03:35.205Z,29.39
2022-08-17T05:03:59.346Z,29.40
2022-08-17T05:04:34.246Z,29.36
2022-08-17T05:04:57.269Z,29.45
2022-08-17T05:05:20.220Z,29.49
2022-08-17T05:05:45.195Z,29.38
2022-08-17T05:06:11.395Z,29.47
2022-08-17T05:06:33.780Z,29.47
2022-08-17T05:06:55.621Z,29.52
2022-08-17T05:07:24.643Z,29.51
2022-08-17T05:07:48.312Z,29.53
2022-08-17T05:08:10.571Z,29.53
2022-08-17T05:08:32.938Z,29.41
2022-08-17T05:08:56.623Z,29.44
2022-08-17T05:09:20.026Z,29.45
2022-08-17T05:09:42.062Z,29.41
2022-08-17T05:10:04.956Z,29.37
2022-08-17T05:10:31.534Z,29.39
2022-08-17T05:10:53.303Z,29.31
2022-08-17T05:11:15.704Z,29.39
2022-08-17T05:11:38.712Z,29.33
2022-08-17T05:12:07.251Z,29.40
2022-08-17T05:12:29.061Z,29.43
2022-08-17T05:12:58.369Z,29.38
2022-08-17T05:13:23.922Z,29.45
2022-08-17T05:13:45.994Z,29.46
2022-08-17T05:14:07.743Z,29.50
2022-08-17T05:14:33.556Z,29.49
2022-08-17T05:14:55.537Z,29.56
2022-08-17T05:15:19.610Z,29.57
2022-08-17T05:15:45.135Z,29.54
2022-08-17T05:16:10.467Z,29.55
2022-08-17T05:16:32.575Z,29.58
2022-08-17T05:16:54.245Z,29.57
2022-08-17T05:17:15.939Z,29.59
2022-08-17T05:17:37.623Z,29.59
2022-08-17T05:17:59.335Z,29.61
2022-08-17T05:18:22.516Z,29.58
2022-08-17T05:18:46.517Z,29.62
2022-08-17T05:19:09.149Z,29.62
2022-08-17T05:19:30.850Z,29.61
2022-08-17T05:19:52.513Z,29.59
2022-08-17T05:20:14.242Z,29.46
2022-08-17T05:20:38.776Z,29.58
2022-08-17T05:21:01.496Z,29.52
2022-08-17T05:21:23.439Z,29.64
2022-08-17T05:21:45.548Z,29.54
2022-08-17T05:22:07.837Z,29.59
2022-08-17T05:22:31.220Z,29.56
2022-08-17T05:22:55.578Z,29.42
2022-08-17T05:23:19.107Z,29.51
2022-08-17T05:23:43.628Z,29.48
2022-08-17T05:24:38.722Z,29.48
2022-08-17T05:24:55.447Z,29.40
2022-08-17T05:25:20.863Z,29.49
2022-08-17T05:25:49.765Z,29.49
2022-08-17T05:26:26.171Z,29.46
2022-08-17T05:26:49.662Z,29.54
2022-08-17T05:27:15.906Z,29.54
2022-08-17T05:27:40.711Z,29.54
2022-08-17T05:28:05.289Z,29.56
2022-08-17T05:28:29.084Z,29.55
2022-08-17T05:28:51.593Z,29.57
2022-08-17T05:29:13.337Z,29.57
2022-08-17T05:29:35.506Z,29.51
2022-08-17T05:29:57.568Z,29.57
2022-08-17T05:30:20.594Z,29.54
2022-08-17T05:30:43.127Z,29.52
2022-08-17T05:31:05.339Z,29.56
2022-08-17T05:31:29.595Z,29.58
2022-08-17T05:31:51.338Z,29.59
2022-08-17T05:32:37.897Z,29.56
2022-08-17T05:32:58.821Z,29.63
2022-08-17T05:33:23.924Z,29.54
2022-08-17T05:33:46.339Z,29.53
2022-08-17T05:34:08.071Z,29.44
2022-08-17T05:34:30.766Z,29.49
2022-08-17T05:34:52.411Z,29.55
2022-08-17T05:35:15.244Z,29.53
2022-08-17T05:35:39.736Z,29.47
2022-08-17T05:36:04.533Z,29.49
2022-08-17T05:36:43.230Z,29.52
2022-08-17T05:37:06.112Z,29.57
2022-08-17T05:37:28.043Z,29.53
2022-08-17T05:37:51.274Z,29.52
2022-08-17T05:38:14.147Z,29.52
2022-08-17T05:38:35.953Z,29.56
2022-08-17T05:38:58.685Z,29.54
2022-08-17T05:39:20.363Z,29.44
2022-08-17T05:39:42.091Z,29.40
2022-08-17T05:40:06.952Z,29.44
2022-08-17T05:40:32.924Z,29.36
2022-08-17T05:40:56.843Z,29.37
2022-08-17T05:41:18.522Z,29.43
2022-08-17T05:41:40.435Z,29.45
2022-08-17T05:42:06.685Z,29.29